Time;durP1;ratioP1;P1;durP2;ratioP2;P2;SDS_P1;SDS_P2;PMS_P1;PMS_P2;Temp;Humidity;BMP_temperature;BMP_pressure;BME280_temperature;BME280_humidity;BME280_pressure;Samples;Min_cycle;Max_cycle;Signal;HPM_P1;HPM_P2
2022/12/25 00:00:09;;;;;;;104.07;29.77;;;5.30;99.90;;;;;;4977732;28;20142;-77
2022/12/25 00:02:35;;;;;;;128.82;31.85;;;5.30;99.90;;;;;;4994503;28;20046;-77
2022/12/25 00:05:00;;;;;;;129.55;31.50;;;5.30;99.90;;;;;;4957354;28;20081;-81
2022/12/25 00:07:26;;;;;;;116.40;30.17;;;5.30;99.90;;;;;;4973786;28;20092;-78
2022/12/25 00:09:52;;;;;;;144.88;31.83;;;5.20;99.90;;;;;;4992446;28;20050;-77
2022/12/25 00:12:19;;;;;;;129.20;31.95;;;5.20;99.90;;;;;;4991227;28;20073;-77
2022/12/25 00:14:45;;;;;;;119.57;29.85;;;5.20;99.90;;;;;;4976713;28;20381;-77
2022/12/25 00:17:11;;;;;;;116.30;30.85;;;5.30;99.90;;;;;;4976996;28;20045;-83
2022/12/25 00:19:36;;;;;;;116.93;30.52;;;5.30;99.90;;;;;;4977020;28;20042;-78
2022/12/25 00:22:02;;;;;;;121.40;30.23;;;5.40;99.90;;;;;;4974421;28;20480;-77
2022/12/25 00:24:28;;;;;;;117.25;30.10;;;5.40;99.90;;;;;;4959240;28;20054;-83
2022/12/25 00:26:53;;;;;;;121.30;32.35;;;5.30;99.90;;;;;;4986503;28;20069;-77
2022/12/25 00:29:19;;;;;;;111.80;29.98;;;5.30;99.90;;;;;;4993065;28;20058;-79
2022/12/25 00:31:45;;;;;;;125.97;31.90;;;5.40;99.90;;;;;;4959685;28;20053;-77
2022/12/25 00:34:10;;;;;;;138.50;31.95;;;5.40;99.90;;;;;;4992368;28;20458;-80
2022/12/25 00:36:36;;;;;;;137.55;32.13;;;5.30;99.90;;;;;;4960611;28;20522;-77
2022/12/25 00:39:02;;;;;;;131.10;34.63;;;5.30;99.90;;;;;;4989061;28;20104;-77
2022/12/25 00:44:12;;;;;;;140.77;33.67;;;5.30;99.90;;;;;;4992136;28;20057;-79
2022/12/25 00:46:39;;;;;;;125.28;32.95;;;5.30;99.90;;;;;;4990497;28;20216;-77
2022/12/25 00:49:05;;;;;;;113.75;30.88;;;5.30;99.90;;;;;;4991673;28;20131;-77
2022/12/25 00:51:32;;;;;;;145.50;34.47;;;5.20;99.90;;;;;;4993073;28;20045;-78
2022/12/25 00:53:58;;;;;;;121.90;33.35;;;5.30;99.90;;;;;;4992364;28;20053;-78
2022/12/25 00:56:24;;;;;;;136.27;32.55;;;5.30;99.90;;;;;;4992517;28;20042;-78
2022/12/25 00:58:50;;;;;;;143.40;33.45;;;5.20;99.90;;;;;;4991889;28;20041;-77
2022/12/25 01:01:16;;;;;;;136.48;33.45;;;5.20;99.90;;;;;;4976573;28;20050;-77
2022/12/25 01:03:42;;;;;;;116.60;31.25;;;5.30;99.90;;;;;;4973235;28;20052;-77
2022/12/25 01:06:11;;;;;;;144.93;34.65;;;5.30;99.90;;;;;;4991690;28;20037;-80
2022/12/25 01:10:20;;;;;;;128.63;32.22;;;5.30;99.90;;;;;;4986628;28;20373;-77
2022/12/25 01:11:24;;;;;;;128.88;34.05;;;5.30;99.90;;;;;;4974565;28;20489;-80
2022/12/25 01:13:50;;;;;;;123.22;31.73;;;5.30;99.90;;;;;;4988152;28;20049;-77
2022/12/25 01:16:16;;;;;;;121.78;33.90;;;5.50;99.90;;;;;;4973443;28;20052;-80
2022/12/25 01:18:43;;;;;;;121.30;31.42;;;5.60;99.90;;;;;;4969869;28;20053;-78
2022/12/25 01:21:10;;;;;;;135.32;34.85;;;5.60;99.90;;;;;;4991232;28;20045;-77
2022/12/25 01:23:36;;;;;;;149.23;35.47;;;5.80;99.90;;;;;;4991052;28;20061;-77
2022/12/25 01:26:04;;;;;;;152.50;36.00;;;5.90;99.90;;;;;;4974999;28;20419;-77
2022/12/25 01:28:30;;;;;;;157.35;38.33;;;5.90;99.90;;;;;;4989738;28;20554;-77
2022/12/25 01:30:56;;;;;;;171.30;38.67;;;6.10;99.90;;;;;;4969840;28;20058;-77
2022/12/25 01:33:21;;;;;;;159.10;37.42;;;6.00;99.90;;;;;;4981608;28;20487;-80
2022/12/25 01:35:47;;;;;;;149.77;37.20;;;6.00;99.90;;;;;;4986304;28;20101;-77
2022/12/25 01:38:12;;;;;;;144.38;35.22;;;6.10;99.90;;;;;;4969181;28;20488;-83
2022/12/25 01:40:39;;;;;;;161.50;37.75;;;6.20;99.90;;;;;;4952585;28;20553;-78
2022/12/25 01:43:35;;;;;;;161.60;37.67;;;6.30;99.90;;;;;;4975152;28;20412;-77
2022/12/25 01:46:02;;;;;;;144.32;36.47;;;6.40;99.90;;;;;;4947447;28;20062;-80
2022/12/25 01:48:37;;;;;;;149.65;35.63;;;6.40;99.90;;;;;;4968735;28;20054;-78
2022/12/25 01:51:31;;;;;;;143.05;35.38;;;6.40;99.90;;;;;;4970075;28;20042;-78
2022/12/25 01:54:01;;;;;;;126.45;32.50;;;6.50;99.90;;;;;;4979876;28;20058;-78
2022/12/25 01:56:28;;;;;;;128.13;33.28;;;6.50;99.90;;;;;;4968253;28;20078;-79
2022/12/25 01:58:56;;;;;;;121.57;35.88;;;6.50;99.90;;;;;;4970834;28;20054;-79
2022/12/25 02:01:21;;;;;;;133.90;35.20;;;6.50;99.90;;;;;;4972830;28;20081;-79
2022/12/25 02:03:47;;;;;;;139.27;34.45;;;6.70;99.90;;;;;;4953147;28;20051;-78
2022/12/25 02:06:13;;;;;;;133.50;33.58;;;6.70;99.90;;;;;;4987981;28;20052;-81
2022/12/25 02:08:40;;;;;;;124.38;33.67;;;6.70;99.90;;;;;;4955380;28;20074;-78
2022/12/25 02:11:55;;;;;;;124.82;33.67;;;6.70;99.90;;;;;;4986948;28;20060;-78
2022/12/25 02:13:53;;;;;;;134.00;34.47;;;6.70;99.90;;;;;;4987740;28;20512;-77
2022/12/25 02:16:26;;;;;;;130.35;34.00;;;6.70;99.90;;;;;;4971302;28;20077;-77
2022/12/25 02:18:59;;;;;;;108.88;33.28;;;6.70;99.90;;;;;;4960563;28;20053;-78
2022/12/25 02:21:44;;;;;;;121.05;35.08;;;6.80;99.90;;;;;;4990297;28;20381;-78
2022/12/25 02:24:28;;;;;;;145.70;35.47;;;6.70;99.90;;;;;;4982823;28;20047;-78
2022/12/25 02:27:17;;;;;;;142.23;34.67;;;6.60;99.90;;;;;;4977676;28;20042;-77
2022/12/25 02:30:05;;;;;;;125.00;32.60;;;6.60;99.90;;;;;;4979893;28;20373;-80
2022/12/25 02:35:54;;;;;;;122.50;32.15;;;6.50;99.90;;;;;;4974253;28;20050;-77
2022/12/25 02:39:56;;;;;;;122.25;33.58;;;6.40;99.90;;;;;;4989055;28;20058;-78
2022/12/25 02:41:27;;;;;;;124.30;32.38;;;6.50;99.90;;;;;;4986422;28;20085;-78
2022/12/25 03:07:01;;;;;;;120.97;31.42;;;6.70;99.90;;;;;;4988135;28;21718;-77
2022/12/25 03:12:06;;;;;;;105.00;29.33;;;6.70;99.90;;;;;;4983373;28;20517;-77
2022/12/25 03:17:16;;;;;;;109.93;31.33;;;6.80;99.90;;;;;;4962053;28;20046;-77
2022/12/25 03:27:59;;;;;;;124.65;31.65;;;6.90;99.90;;;;;;4977223;28;20095;-78
2022/12/25 03:31:11;;;;;;;109.90;30.65;;;6.90;99.90;;;;;;4970951;28;20097;-77
2022/12/25 03:37:11;;;;;;;137.35;31.65;;;7.00;99.90;;;;;;4989728;28;20136;-79
2022/12/25 03:46:50;;;;;;;120.80;33.17;;;7.00;99.90;;;;;;4979919;28;20050;-78
2022/12/25 04:38:19;;;;;;;117.60;32.65;;;7.30;99.90;;;;;;4975523;28;20069;-77
2022/12/25 04:40:45;;;;;;;112.70;32.25;;;7.30;99.90;;;;;;4971225;28;20485;-76
2022/12/25 04:43:11;;;;;;;118.20;32.65;;;7.30;99.90;;;;;;4973401;28;20050;-79
2022/12/25 04:45:37;;;;;;;122.10;34.03;;;7.40;99.90;;;;;;4954907;28;20058;-77
2022/12/25 04:48:02;;;;;;;122.88;33.35;;;7.40;99.90;;;;;;4973230;28;20049;-77
2022/12/25 04:50:28;;;;;;;133.10;35.58;;;7.50;99.90;;;;;;4970801;28;20050;-84
2022/12/25 04:52:54;;;;;;;161.07;36.95;;;7.50;99.90;;;;;;4989279;28;20424;-78
2022/12/25 04:55:19;;;;;;;169.82;38.70;;;7.50;99.90;;;;;;4972865;28;20112;-81
2022/12/25 04:57:45;;;;;;;152.43;36.90;;;7.50;99.90;;;;;;4957824;28;20092;-77
2022/12/25 05:00:11;;;;;;;142.85;36.22;;;7.60;99.90;;;;;;4953424;28;20039;-77
2022/12/25 05:02:37;;;;;;;147.65;36.55;;;7.60;99.90;;;;;;4973530;28;20053;-76
2022/12/25 05:05:03;;;;;;;166.45;37.72;;;7.60;99.90;;;;;;4983594;28;20736;-77
2022/12/25 05:07:28;;;;;;;130.20;35.17;;;7.60;99.90;;;;;;4973942;28;20135;-76
2022/12/25 05:09:55;;;;;;;138.30;34.90;;;7.60;99.90;;;;;;4987812;28;20043;-77
2022/12/25 05:12:21;;;;;;;158.57;38.92;;;7.70;99.90;;;;;;4973848;28;20105;-77
2022/12/25 05:14:46;;;;;;;136.85;37.63;;;7.70;99.90;;;;;;4971698;28;20046;-79
2022/12/25 05:17:12;;;;;;;150.77;38.05;;;7.70;99.90;;;;;;4987992;28;20065;-77
2022/12/25 05:19:38;;;;;;;162.07;39.53;;;7.70;99.90;;;;;;4972469;28;20092;-78
2022/12/25 05:22:04;;;;;;;145.95;37.35;;;7.70;99.90;;;;;;4970176;28;20600;-78
2022/12/25 05:24:29;;;;;;;169.52;40.22;;;7.80;99.90;;;;;;4969066;28;20122;-79
2022/12/25 05:26:55;;;;;;;146.27;38.42;;;7.80;99.90;;;;;;4969317;28;20057;-79
2022/12/25 05:29:21;;;;;;;185.23;41.28;;;7.90;99.90;;;;;;4968757;28;20046;-77
2022/12/25 05:31:46;;;;;;;165.50;41.33;;;7.90;99.90;;;;;;4965404;28;20047;-77
2022/12/25 05:34:12;;;;;;;190.15;42.15;;;7.90;99.90;;;;;;4956111;28;20074;-77
2022/12/25 05:36:38;;;;;;;226.10;44.88;;;7.90;99.90;;;;;;4972287;28;20076;-76
2022/12/25 05:39:03;;;;;;;183.90;41.95;;;7.90;99.90;;;;;;4987426;28;20113;-78
2022/12/25 05:41:29;;;;;;;216.55;43.15;;;7.90;99.90;;;;;;4937358;28;20062;-81
2022/12/25 05:43:55;;;;;;;233.00;45.60;;;7.90;99.90;;;;;;4964608;28;20084;-84
2022/12/25 05:46:22;;;;;;;223.20;44.92;;;8.00;99.90;;;;;;4973065;28;20053;-78
2022/12/25 05:48:48;;;;;;;224.60;44.83;;;7.90;99.90;;;;;;4985266;28;20054;-77
2022/12/25 05:51:14;;;;;;;253.30;46.22;;;8.00;99.90;;;;;;4968591;28;20035;-77
2022/12/25 05:53:41;;;;;;;210.77;43.55;;;8.00;99.90;;;;;;4970385;28;20057;-78
2022/12/25 05:56:08;;;;;;;205.40;43.88;;;8.00;99.90;;;;;;4988611;28;20125;-77
2022/12/25 05:58:35;;;;;;;188.52;40.97;;;8.00;99.90;;;;;;4972179;28;20108;-77
2022/12/25 06:01:01;;;;;;;200.57;42.63;;;8.00;99.90;;;;;;4972922;28;20137;-78
2022/12/25 06:03:27;;;;;;;181.77;41.05;;;8.00;99.90;;;;;;4988514;28;20050;-77
2022/12/25 06:05:53;;;;;;;222.30;44.67;;;8.00;99.90;;;;;;4972226;28;20370;-77
2022/12/25 06:08:19;;;;;;;200.50;41.95;;;8.00;99.90;;;;;;4998013;28;20042;-76
2022/12/25 06:10:45;;;;;;;200.30;41.20;;;8.00;99.90;;;;;;4969294;28;20519;-77
2022/12/25 06:13:10;;;;;;;190.88;42.47;;;8.00;99.90;;;;;;4987478;28;20038;-77
2022/12/25 06:15:41;;;;;;;205.73;43.50;;;8.00;99.90;;;;;;4968360;28;20120;-77
2022/12/25 06:18:06;;;;;;;176.60;41.67;;;8.00;99.90;;;;;;4986095;28;20515;-78
2022/12/25 06:20:33;;;;;;;164.90;39.60;;;8.00;99.90;;;;;;4988471;28;20046;-77
2022/12/25 06:23:00;;;;;;;197.30;42.25;;;8.00;99.90;;;;;;4984260;28;20126;-77
2022/12/25 06:25:25;;;;;;;212.35;43.95;;;8.00;99.90;;;;;;4962361;28;20046;-79
2022/12/25 06:27:51;;;;;;;207.32;43.55;;;8.10;99.90;;;;;;4985785;28;20089;-78
2022/12/25 06:30:17;;;;;;;193.18;42.67;;;8.10;99.90;;;;;;4970163;28;20042;-77
2022/12/25 06:32:43;;;;;;;236.93;46.03;;;8.10;99.90;;;;;;4970653;28;20058;-77
2022/12/25 06:35:08;;;;;;;224.45;43.35;;;8.10;99.90;;;;;;4984491;28;20053;-77
2022/12/25 06:37:34;;;;;;;208.88;43.58;;;8.10;99.90;;;;;;4972555;28;20550;-77
2022/12/25 06:40:00;;;;;;;194.73;42.45;;;8.10;99.90;;;;;;4986309;28;20053;-77
2022/12/25 06:42:25;;;;;;;188.80;41.85;;;8.10;99.90;;;;;;4968790;28;20152;-77
2022/12/25 06:44:52;;;;;;;179.52;41.17;;;8.20;99.90;;;;;;4952091;28;20042;-78
2022/12/25 06:47:18;;;;;;;149.25;39.38;;;8.10;99.90;;;;;;4980985;28;20082;-77
2022/12/25 06:49:43;;;;;;;182.13;41.95;;;8.20;99.90;;;;;;4988187;28;20084;-78
2022/12/25 06:52:09;;;;;;;170.30;40.58;;;8.20;99.90;;;;;;4971199;28;20473;-79
2022/12/25 06:54:35;;;;;;;159.95;39.08;;;8.20;99.90;;;;;;4971807;28;20055;-77
2022/12/25 06:57:00;;;;;;;172.57;40.45;;;8.20;99.90;;;;;;4988151;28;20046;-83
2022/12/25 06:59:26;;;;;;;170.70;38.60;;;8.20;99.90;;;;;;4955731;28;20046;-78
2022/12/25 07:01:54;;;;;;;245.20;45.90;;;8.20;99.90;;;;;;4956603;28;20034;-78
2022/12/25 07:04:44;;;;;;;172.52;39.55;;;8.20;99.90;;;;;;4980466;28;20066;-77
2022/12/25 07:07:11;;;;;;;145.52;38.40;;;8.20;99.90;;;;;;4995186;28;20094;-85
2022/12/25 07:09:41;;;;;;;175.82;40.97;;;8.20;99.90;;;;;;4971183;28;20082;-75
2022/12/25 07:12:24;;;;;;;171.63;39.83;;;8.20;99.90;;;;;;4991236;28;20057;-82
2022/12/25 07:14:53;;;;;;;153.82;38.75;;;8.20;99.90;;;;;;4990883;28;20043;-75
2022/12/25 07:17:19;;;;;;;175.55;39.85;;;8.20;99.90;;;;;;4991441;28;20039;-75
2022/12/25 07:19:46;;;;;;;167.15;38.50;;;8.20;99.90;;;;;;4991519;28;20515;-77
2022/12/25 07:22:12;;;;;;;147.98;38.00;;;8.20;99.90;;;;;;4966210;28;20045;-77
2022/12/25 07:24:38;;;;;;;157.95;38.45;;;8.20;99.90;;;;;;5002173;28;20699;-76
2022/12/25 07:27:03;;;;;;;130.75;36.40;;;8.30;99.90;;;;;;4973194;28;20082;-80
2022/12/25 07:29:29;;;;;;;137.85;36.85;;;8.20;99.90;;;;;;4955381;28;20062;-81
2022/12/25 07:31:55;;;;;;;129.35;35.33;;;8.30;99.90;;;;;;4980317;28;20054;-79
2022/12/25 07:34:21;;;;;;;124.47;34.60;;;8.30;99.90;;;;;;4970285;28;20047;-79
2022/12/25 07:36:47;;;;;;;94.07;31.33;;;8.30;99.90;;;;;;4987335;28;20061;-77
2022/12/25 07:39:13;;;;;;;97.82;32.38;;;8.30;99.90;;;;;;4976025;28;20488;-81
2022/12/25 07:41:39;;;;;;;95.03;31.02;;;8.30;99.90;;;;;;4974893;28;20043;-78
2022/12/25 07:44:04;;;;;;;98.40;31.73;;;8.30;99.90;;;;;;4969806;28;20054;-77
2022/12/25 07:46:30;;;;;;;89.18;29.13;;;8.30;99.90;;;;;;4982878;28;20041;-77
2022/12/25 07:48:56;;;;;;;89.25;30.23;;;8.30;99.90;;;;;;4973138;28;20126;-79
2022/12/25 07:51:22;;;;;;;101.72;31.63;;;8.40;99.90;;;;;;4960792;28;20404;-79
2022/12/25 07:53:48;;;;;;;95.68;30.40;;;8.40;99.90;;;;;;4992791;28;20125;-77
2022/12/25 07:56:18;;;;;;;79.05;29.00;;;8.40;99.90;;;;;;4991144;28;20275;-78
2022/12/25 07:58:45;;;;;;;90.55;29.33;;;8.40;99.90;;;;;;4974571;28;20503;-77
2022/12/25 08:01:18;;;;;;;76.35;27.30;;;8.30;99.90;;;;;;4987593;28;20100;-81
2022/12/25 08:03:49;;;;;;;78.00;26.65;;;8.40;99.90;;;;;;4973442;28;20484;-81
2022/12/25 08:06:14;;;;;;;62.58;26.02;;;8.40;99.90;;;;;;4989882;28;20408;-87
2022/12/25 08:08:41;;;;;;;66.72;25.52;;;8.40;99.90;;;;;;4978609;28;20058;-80
2022/12/25 08:11:08;;;;;;;68.68;25.48;;;8.40;99.90;;;;;;4978341;28;20573;-82
2022/12/25 08:13:34;;;;;;;68.43;25.77;;;8.40;99.90;;;;;;4991442;28;20038;-81
2022/12/25 08:16:01;;;;;;;62.90;27.08;;;8.50;99.90;;;;;;4994321;28;20349;-80
2022/12/25 08:18:28;;;;;;;66.05;26.33;;;8.40;99.90;;;;;;4978612;28;20507;-80
2022/12/25 08:20:54;;;;;;;63.65;24.52;;;8.40;99.90;;;;;;4959055;28;20724;-80
2022/12/25 08:23:20;;;;;;;52.70;23.80;;;8.40;99.90;;;;;;4962093;28;20050;-81
2022/12/25 08:25:45;;;;;;;56.78;23.08;;;8.40;99.90;;;;;;4993950;28;20042;-79
2022/12/25 08:28:13;;;;;;;63.05;25.88;;;8.40;99.90;;;;;;4959822;28;20053;-80
2022/12/25 08:30:40;;;;;;;53.00;21.80;;;8.40;99.90;;;;;;4974723;28;20404;-80
2022/12/25 08:33:06;;;;;;;62.58;24.80;;;8.40;99.90;;;;;;4972543;28;20064;-81
2022/12/25 08:35:35;;;;;;;51.00;20.63;;;8.40;99.90;;;;;;4977678;28;20050;-82
2022/12/25 08:38:01;;;;;;;48.67;20.60;;;8.50;99.90;;;;;;4993929;28;20046;-81
2022/12/25 08:40:27;;;;;;;68.13;24.35;;;8.40;99.90;;;;;;4994074;28;20053;-82
2022/12/25 08:42:56;;;;;;;54.20;21.67;;;8.40;99.90;;;;;;4994392;28;20042;-81
2022/12/25 08:45:22;;;;;;;54.78;21.88;;;8.40;99.90;;;;;;4993488;28;20045;-85
2022/12/25 08:47:52;;;;;;;48.33;20.88;;;8.40;99.90;;;;;;4975261;28;20050;-81
2022/12/25 08:50:18;;;;;;;51.67;20.20;;;8.40;99.90;;;;;;4969104;28;20126;-80
2022/12/25 08:52:43;;;;;;;44.00;19.17;;;8.40;99.90;;;;;;4977678;28;20126;-81
2022/12/25 08:55:09;;;;;;;49.63;21.05;;;8.40;99.90;;;;;;4961685;28;20054;-81
2022/12/25 08:57:35;;;;;;;44.35;18.88;;;8.40;99.90;;;;;;4991047;28;20058;-81
2022/12/25 09:00:02;;;;;;;54.33;20.80;;;8.40;99.90;;;;;;4962143;28;20054;-81
2022/12/25 09:02:28;;;;;;;45.08;19.77;;;8.40;99.90;;;;;;4980090;28;20046;-81
2022/12/25 09:04:54;;;;;;;53.42;21.60;;;8.40;99.90;;;;;;4961127;28;20117;-81
2022/12/25 09:07:19;;;;;;;44.13;18.40;;;8.40;99.90;;;;;;4961272;28;20061;-80
2022/12/25 09:09:45;;;;;;;54.95;19.50;;;8.30;99.90;;;;;;4961703;28;20481;-81
2022/12/25 09:12:14;;;;;;;43.75;18.98;;;8.40;99.90;;;;;;4993534;28;20046;-81
2022/12/25 09:14:39;;;;;;;44.67;18.90;;;8.30;99.90;;;;;;4961549;28;20050;-81
2022/12/25 09:17:29;;;;;;;38.20;16.67;;;8.40;99.90;;;;;;4972725;28;20061;-82
2022/12/25 09:20:31;;;;;;;40.03;16.83;;;8.40;99.90;;;;;;4906251;29;20458;-82
2022/12/25 09:22:57;;;;;;;41.22;17.73;;;8.40;99.90;;;;;;4892358;29;20053;-81
2022/12/25 09:25:23;;;;;;;44.95;17.52;;;8.50;99.90;;;;;;4950924;28;20405;-81
2022/12/25 09:27:48;;;;;;;52.60;18.92;;;8.40;99.90;;;;;;4969448;28;20392;-80
2022/12/25 09:30:14;;;;;;;38.75;16.55;;;8.40;99.90;;;;;;4993284;28;20116;-81
2022/12/25 09:32:40;;;;;;;42.00;17.70;;;8.40;99.90;;;;;;4976863;28;20073;-81
2022/12/25 09:35:09;;;;;;;38.75;15.48;;;8.40;99.90;;;;;;4958068;28;20054;-82
2022/12/25 09:37:34;;;;;;;44.17;15.70;;;8.40;99.90;;;;;;4953765;28;20439;-81
2022/12/25 09:40:00;;;;;;;31.50;14.70;;;8.40;99.90;;;;;;4960058;28;20046;-81
2022/12/25 09:42:30;;;;;;;38.80;15.43;;;8.50;99.90;;;;;;4958100;28;20043;-81
2022/12/25 09:44:59;;;;;;;37.47;15.15;;;8.50;99.90;;;;;;4976135;28;20499;-81
2022/12/25 09:47:32;;;;;;;33.85;14.80;;;8.50;99.90;;;;;;4976150;28;20054;-83
2022/12/25 09:50:12;;;;;;;37.67;14.75;;;8.50;99.90;;;;;;4973405;28;20051;-83
2022/12/25 09:52:53;;;;;;;34.22;13.82;;;8.50;99.90;;;;;;4973825;28;20049;-82
2022/12/25 09:55:25;;;;;;;27.58;13.98;;;8.50;99.90;;;;;;4992789;28;20062;-81
2022/12/25 09:57:54;;;;;;;26.42;13.02;;;8.50;99.90;;;;;;4990767;28;20034;-81
2022/12/25 10:00:22;;;;;;;34.88;14.60;;;8.60;99.90;;;;;;4976640;28;20134;-82
2022/12/25 10:03:00;;;;;;;33.70;14.43;;;8.60;99.90;;;;;;4957982;28;20432;-81
2022/12/25 10:05:40;;;;;;;35.97;14.55;;;8.60;99.90;;;;;;4979846;28;20039;-81
2022/12/25 10:08:36;;;;;;;34.10;14.80;;;8.70;99.90;;;;;;4961187;28;20464;-81
2022/12/25 10:11:13;;;;;;;37.55;16.27;;;8.70;99.90;;;;;;4960123;28;20447;-81
2022/12/25 10:13:57;;;;;;;29.67;14.35;;;8.70;99.90;;;;;;4992909;28;20096;-81
2022/12/25 10:16:25;;;;;;;33.67;15.00;;;8.70;99.90;;;;;;4977193;28;20054;-80
2022/12/25 10:19:00;;;;;;;29.83;14.05;;;8.70;99.90;;;;;;4992771;28;20046;-82
2022/12/25 10:21:27;;;;;;;28.15;13.57;;;8.70;99.90;;;;;;4976919;28;20053;-81
2022/12/25 10:24:01;;;;;;;32.67;14.35;;;8.70;99.90;;;;;;4974939;28;20377;-79
2022/12/25 10:26:30;;;;;;;47.60;23.52;;;8.70;99.90;;;;;;4968627;28;20129;-79
2022/12/25 10:29:29;;;;;;;37.75;21.35;;;8.70;99.90;;;;;;4973627;28;20054;-78
2022/12/25 10:31:55;;;;;;;39.55;16.38;;;8.70;99.90;;;;;;4959541;28;20050;-79
2022/12/25 10:34:21;;;;;;;24.10;14.65;;;8.70;99.90;;;;;;4955722;28;20488;-86
2022/12/25 10:36:48;;;;;;;32.95;13.48;;;8.70;99.90;;;;;;4960976;28;20054;-79
2022/12/25 10:39:23;;;;;;;34.05;17.60;;;8.70;99.90;;;;;;4980815;28;20448;-81
2022/12/25 10:41:58;;;;;;;38.92;21.27;;;8.80;99.90;;;;;;4962833;28;20601;-80
2022/12/25 10:44:24;;;;;;;36.70;21.33;;;8.80;99.90;;;;;;4967264;28;20050;-81
2022/12/25 10:46:53;;;;;;;35.13;17.60;;;8.70;99.90;;;;;;4973071;28;20112;-81
2022/12/25 10:49:24;;;;;;;29.05;14.55;;;8.80;99.90;;;;;;4974307;28;20081;-80
2022/12/25 10:51:51;;;;;;;35.35;14.18;;;8.80;99.90;;;;;;4972609;28;20535;-81
2022/12/25 10:54:34;;;;;;;24.85;13.70;;;8.80;99.90;;;;;;4970203;28;20042;-81
2022/12/25 10:57:21;;;;;;;26.70;12.90;;;8.80;99.90;;;;;;4984597;28;20042;-81
2022/12/25 10:59:49;;;;;;;25.75;14.43;;;8.90;99.90;;;;;;4984706;28;20168;-81
2022/12/25 11:02:27;;;;;;;30.08;15.23;;;8.90;99.90;;;;;;4976644;28;20172;-83
2022/12/25 11:05:05;;;;;;;27.40;14.20;;;8.90;99.90;;;;;;4995696;28;20038;-81
2022/12/25 11:07:45;;;;;;;22.88;12.55;;;9.00;99.90;;;;;;4963566;28;20061;-82
2022/12/25 11:10:25;;;;;;;26.23;13.75;;;9.00;99.90;;;;;;4964951;28;20105;-82
2022/12/25 11:12:52;;;;;;;31.63;15.18;;;9.00;99.90;;;;;;4976140;28;20049;-83
2022/12/25 11:15:40;;;;;;;32.13;15.93;;;9.10;99.90;;;;;;4976799;28;20403;-81
2022/12/25 11:18:22;;;;;;;27.35;12.38;;;9.10;99.90;;;;;;4969227;28;20047;-83
2022/12/25 11:20:53;;;;;;;25.83;11.75;;;9.20;99.90;;;;;;4962361;28;20437;-86
2022/12/25 11:23:26;;;;;;;21.48;11.40;;;9.20;99.90;;;;;;4981279;28;20055;-84
2022/12/25 11:25:56;;;;;;;21.02;10.65;;;9.20;99.90;;;;;;4972431;28;20570;-81
2022/12/25 11:28:23;;;;;;;23.48;11.45;;;9.20;99.90;;;;;;4974335;28;20133;-81
2022/12/25 11:30:53;;;;;;;22.17;11.00;;;9.30;99.90;;;;;;4953031;28;20088;-81
2022/12/25 11:33:23;;;;;;;21.52;10.90;;;9.30;99.90;;;;;;4974832;28;20043;-83
2022/12/25 11:35:51;;;;;;;20.38;11.07;;;9.40;99.90;;;;;;4992937;28;20054;-81
2022/12/25 11:38:18;;;;;;;23.75;13.45;;;9.40;99.90;;;;;;4990023;28;20046;-81
2022/12/25 11:40:53;;;;;;;41.25;23.63;;;9.50;99.90;;;;;;4971116;28;20054;-82
2022/12/25 11:43:44;;;;;;;37.53;28.15;;;9.50;99.90;;;;;;4989173;28;20068;-82
2022/12/25 11:46:20;;;;;;;24.02;12.55;;;9.40;99.90;;;;;;4992430;28;20051;-84
2022/12/25 11:48:56;;;;;;;25.95;12.30;;;9.40;99.90;;;;;;4986145;28;20129;-81
2022/12/25 11:51:24;;;;;;;23.10;11.70;;;9.40;99.90;;;;;;4980493;28;20042;-81
2022/12/25 11:53:57;;;;;;;22.55;12.10;;;9.40;99.90;;;;;;4972038;28;20046;-83
2022/12/25 11:56:27;;;;;;;21.15;11.50;;;9.40;99.90;;;;;;4976317;28;20126;-84
2022/12/25 11:59:29;;;;;;;21.67;11.80;;;9.40;99.90;;;;;;4982183;28;20042;-83
2022/12/25 12:02:00;;;;;;;29.92;12.10;;;9.40;99.90;;;;;;4967528;28;20065;-80
2022/12/25 12:04:39;;;;;;;25.85;11.02;;;9.40;99.90;;;;;;4983479;28;20054;-80
2022/12/25 12:07:24;;;;;;;21.50;11.80;;;9.40;99.90;;;;;;4974683;28;20085;-81
2022/12/25 12:09:57;;;;;;;25.55;10.90;;;9.40;99.90;;;;;;4969211;28;20494;-86
2022/12/25 12:12:33;;;;;;;22.52;11.73;;;9.40;99.90;;;;;;4973092;28;20524;-80
2022/12/25 12:15:12;;;;;;;18.30;11.52;;;9.40;99.90;;;;;;4984284;28;20074;-80
2022/12/25 12:17:38;;;;;;;22.67;11.63;;;9.40;99.90;;;;;;4969280;28;20054;-86
2022/12/25 12:20:34;;;;;;;27.77;14.73;;;9.30;99.90;;;;;;4988868;28;20511;-82
2022/12/25 12:23:03;;;;;;;26.05;15.55;;;9.40;99.90;;;;;;4970894;28;20085;-81
2022/12/25 12:25:29;;;;;;;27.88;14.88;;;9.40;99.90;;;;;;4989918;28;20054;-79
2022/12/25 12:27:58;;;;;;;26.95;15.13;;;9.40;99.90;;;;;;4952893;28;20130;-85
2022/12/25 12:30:31;;;;;;;24.73;14.07;;;9.40;99.90;;;;;;4973305;28;20062;-82
2022/12/25 12:33:01;;;;;;;24.55;14.70;;;9.40;99.90;;;;;;4987200;28;20058;-85
2022/12/25 12:35:38;;;;;;;27.80;18.27;;;9.40;99.90;;;;;;4980008;28;20137;-81
2022/12/25 12:38:19;;;;;;;30.48;15.73;;;9.40;99.90;;;;;;4980785;28;20046;-82
2022/12/25 12:40:56;;;;;;;30.20;16.17;;;9.40;99.90;;;;;;4972222;28;20054;-80
2022/12/25 12:43:39;;;;;;;40.30;18.58;;;9.40;99.90;;;;;;4970404;28;20495;-82
2022/12/25 12:46:23;;;;;;;38.92;20.25;;;9.40;99.90;;;;;;4973748;28;20400;-84
2022/12/25 12:48:51;;;;;;;40.95;21.50;;;9.40;99.90;;;;;;4985112;28;20049;-82
2022/12/25 12:51:34;;;;;;;42.00;22.20;;;9.40;99.90;;;;;;4971723;28;20046;-80
2022/12/25 12:54:22;;;;;;;36.70;21.30;;;9.40;99.90;;;;;;4984750;28;20088;-81
2022/12/25 12:57:00;;;;;;;38.65;22.65;;;9.30;99.90;;;;;;4969046;28;21029;-81
2022/12/25 12:59:36;;;;;;;37.17;21.60;;;9.40;99.90;;;;;;4969311;28;20173;-82
2022/12/25 13:02:39;;;;;;;40.45;21.63;;;9.40;99.90;;;;;;4970563;28;20495;-82
2022/12/25 13:05:30;;;;;;;40.78;23.30;;;9.40;99.90;;;;;;4968416;28;20043;-83
2022/12/25 13:08:11;;;;;;;39.40;22.88;;;9.40;99.90;;;;;;4985306;28;20404;-83
2022/12/25 13:10:44;;;;;;;41.22;23.83;;;9.40;99.90;;;;;;4968012;28;20138;-81
2022/12/25 13:13:20;;;;;;;41.63;24.70;;;9.30;99.90;;;;;;4984576;28;20595;-80
2022/12/25 13:15:48;;;;;;;45.50;21.50;;;9.40;99.90;;;;;;4971691;28;20046;-83
2022/12/25 13:18:14;;;;;;;39.03;20.70;;;9.30;99.90;;;;;;4967061;28;20550;-83
2022/12/25 13:20:53;;;;;;;40.55;22.00;;;9.30;99.90;;;;;;4969968;28;20076;-81
2022/12/25 13:23:36;;;;;;;33.95;20.00;;;9.30;99.90;;;;;;4988627;28;20038;-82
2022/12/25 13:26:09;;;;;;;42.38;20.83;;;9.30;99.90;;;;;;4988702;28;20046;-85
2022/12/25 13:28:36;;;;;;;40.38;21.25;;;9.30;99.90;;;;;;4980500;28;20463;-80
2022/12/25 13:31:01;;;;;;;39.25;20.58;;;9.30;99.90;;;;;;4989570;28;20042;-77
2022/12/25 13:33:27;;;;;;;40.17;20.13;;;9.30;99.90;;;;;;4984215;28;20104;-79
2022/12/25 13:35:54;;;;;;;35.70;18.33;;;9.20;99.90;;;;;;4966776;28;20487;-80
2022/12/25 13:38:22;;;;;;;31.92;17.98;;;9.20;99.90;;;;;;4953577;28;20643;-84
2022/12/25 13:43:39;;;;;;;36.25;17.25;;;9.20;99.90;;;;;;4977445;28;20054;-82
2022/12/25 13:46:05;;;;;;;41.28;17.88;;;9.20;99.90;;;;;;4963088;28;20042;-84
2022/12/25 13:48:31;;;;;;;39.33;16.83;;;9.20;99.90;;;;;;4956426;28;20419;-82
2022/12/25 13:51:00;;;;;;;37.03;17.48;;;9.20;99.90;;;;;;4973617;28;20046;-82
2022/12/25 13:53:25;;;;;;;46.67;19.02;;;9.20;99.90;;;;;;4968495;28;20088;-81
2022/12/25 13:55:53;;;;;;;42.08;20.42;;;9.20;99.90;;;;;;4970555;28;20082;-82
2022/12/25 13:58:32;;;;;;;44.20;22.50;;;9.20;99.90;;;;;;4951765;28;20114;-82
2022/12/25 14:01:00;;;;;;;41.08;19.00;;;9.20;99.90;;;;;;4967056;28;20054;-82
2022/12/25 14:03:44;;;;;;;43.15;19.35;;;9.20;99.90;;;;;;4986083;28;20126;-80
2022/12/25 14:06:25;;;;;;;38.35;20.02;;;9.20;99.90;;;;;;4967917;28;20130;-88
2022/12/25 14:08:52;;;;;;;44.28;20.40;;;9.20;99.90;;;;;;4971462;28;20108;-81
2022/12/25 14:11:21;;;;;;;53.00;21.02;;;9.20;99.90;;;;;;4966692;28;20038;-79
2022/12/25 14:13:51;;;;;;;48.83;22.23;;;9.20;99.90;;;;;;4981462;28;20401;-82
2022/12/25 14:16:19;;;;;;;46.70;21.70;;;9.20;99.90;;;;;;4969673;28;20073;-80
2022/12/25 14:18:57;;;;;;;46.70;22.00;;;9.20;99.90;;;;;;4987509;28;20133;-79
2022/12/25 14:21:40;;;;;;;52.42;24.10;;;9.10;99.90;;;;;;4977613;28;20049;-79
2022/12/25 14:24:14;;;;;;;48.15;24.55;;;9.10;99.90;;;;;;4995597;28;20495;-84
2022/12/25 14:26:40;;;;;;;53.05;24.77;;;9.10;99.90;;;;;;4964620;28;20042;-80
2022/12/25 14:29:08;;;;;;;49.63;23.70;;;9.10;99.90;;;;;;4965473;28;20109;-78
2022/12/25 14:31:37;;;;;;;55.70;24.38;;;9.10;99.90;;;;;;4972477;28;20645;-81
2022/12/25 14:34:06;;;;;;;59.53;24.25;;;9.10;99.90;;;;;;4992463;28;20060;-80